sensor_id;sensor_type;location;lat;lon;timestamp;temperature;humidity
52471;DHT22;38382;53.160;7.026;2022-11-20T00:01:06;-0.30;99.90
52471;DHT22;38382;53.160;7.026;2022-11-20T00:03:32;-0.30;99.90
52471;DHT22;38382;53.160;7.026;2022-11-20T00:06:02;-0.30;99.90
52471;DHT22;38382;53.160;7.026;2022-11-20T00:08:27;-0.30;99.90
52471;DHT22;38382;53.160;7.026;2022-11-20T00:10:53;0.60;99.90
52471;DHT22;38382;53.160;7.026;2022-11-20T00:13:19;-0.30;99.90
52471;DHT22;38382;53.160;7.026;2022-11-20T00:15:45;-0.30;99.90
52471;DHT22;38382;53.160;7.026;2022-11-20T00:18:10;0.90;99.90
52471;DHT22;38382;53.160;7.026;2022-11-20T00:20:36;-0.30;99.90
52471;DHT22;38382;53.160;7.026;2022-11-20T00:23:02;-0.20;99.90
52471;DHT22;38382;53.160;7.026;2022-11-20T00:25:27;-0.20;99.90
52471;DHT22;38382;53.160;7.026;2022-11-20T00:27:53;0.90;99.90
52471;DHT22;38382;53.160;7.026;2022-11-20T00:30:19;-0.20;99.90
52471;DHT22;38382;53.160;7.026;2022-11-20T00:32:45;0.10;99.90
52471;DHT22;38382;53.160;7.026;2022-11-20T00:35:10;0.90;99.90
52471;DHT22;38382;53.160;7.026;2022-11-20T00:37:36;-0.10;99.90
52471;DHT22;38382;53.160;7.026;2022-11-20T00:40:02;-0.10;99.90
52471;DHT22;38382;53.160;7.026;2022-11-20T00:42:27;-0.10;99.90
52471;DHT22;38382;53.160;7.026;2022-11-20T00:44:53;-0.10;99.90
52471;DHT22;38382;53.160;7.026;2022-11-20T00:47:19;1.50;99.90
52471;DHT22;38382;53.160;7.026;2022-11-20T00:49:45;0.30;99.90
52471;DHT22;38382;53.160;7.026;2022-11-20T00:52:10;-0.10;99.90
52471;DHT22;38382;53.160;7.026;2022-11-20T00:54:36;0.00;99.90
52471;DHT22;38382;53.160;7.026;2022-11-20T00:57:02;0.20;99.90
52471;DHT22;38382;53.160;7.026;2022-11-20T00:59:27;0.00;99.90
52471;DHT22;38382;53.160;7.026;2022-11-20T01:01:53;0.00;99.90
52471;DHT22;38382;53.160;7.026;2022-11-20T01:04:19;0.00;99.90
52471;DHT22;38382;53.160;7.026;2022-11-20T01:06:44;0.00;99.90
52471;DHT22;38382;53.160;7.026;2022-11-20T01:09:12;0.20;99.90
52471;DHT22;38382;53.160;7.026;2022-11-20T01:11:43;0.00;99.90
52471;DHT22;38382;53.160;7.026;2022-11-20T01:14:15;0.10;99.90
52471;DHT22;38382;53.160;7.026;2022-11-20T01:16:45;0.40;99.90
52471;DHT22;38382;53.160;7.026;2022-11-20T01:19:14;1.30;99.90
52471;DHT22;38382;53.160;7.026;2022-11-20T01:21:42;0.10;99.90
52471;DHT22;38382;53.160;7.026;2022-11-20T01:24:11;0.10;99.90
52471;DHT22;38382;53.160;7.026;2022-11-20T01:26:39;0.10;99.90
52471;DHT22;38382;53.160;7.026;2022-11-20T01:29:06;0.50;99.90
52471;DHT22;38382;53.160;7.026;2022-11-20T01:31:34;0.70;99.90
52471;DHT22;38382;53.160;7.026;2022-11-20T01:34:02;0.10;99.90
52471;DHT22;38382;53.160;7.026;2022-11-20T01:36:30;0.20;99.90
52471;DHT22;38382;53.160;7.026;2022-11-20T01:38:58;0.20;99.90
52471;DHT22;38382;53.160;7.026;2022-11-20T01:41:26;0.20;99.90
52471;DHT22;38382;53.160;7.026;2022-11-20T01:44:12;0.60;99.90
52471;DHT22;38382;53.160;7.026;2022-11-20T01:49:22;0.20;99.90
52471;DHT22;38382;53.160;7.026;2022-11-20T01:51:56;0.20;99.90
52471;DHT22;38382;53.160;7.026;2022-11-20T01:54:30;1.50;99.90
52471;DHT22;38382;53.160;7.026;2022-11-20T01:56:57;0.20;99.90
52471;DHT22;38382;53.160;7.026;2022-11-20T01:59:26;0.10;99.90
52471;DHT22;38382;53.160;7.026;2022-11-20T02:01:53;0.10;99.90
52471;DHT22;38382;53.160;7.026;2022-11-20T02:04:20;0.10;99.90
52471;DHT22;38382;53.160;7.026;2022-11-20T02:09:40;0.20;99.90
52471;DHT22;38382;53.160;7.026;2022-11-20T02:12:06;1.40;99.90
52471;DHT22;38382;53.160;7.026;2022-11-20T02:14:51;0.20;99.90
52471;DHT22;38382;53.160;7.026;2022-11-20T02:17:17;0.20;99.90
52471;DHT22;38382;53.160;7.026;2022-11-20T02:19:43;0.10;99.90
52471;DHT22;38382;53.160;7.026;2022-11-20T02:22:16;0.20;99.90
52471;DHT22;38382;53.160;7.026;2022-11-20T02:24:45;0.20;99.90
52471;DHT22;38382;53.160;7.026;2022-11-20T02:27:14;0.20;99.90
52471;DHT22;38382;53.160;7.026;2022-11-20T02:29:53;1.10;99.90
52471;DHT22;38382;53.160;7.026;2022-11-20T02:32:27;0.20;99.90
52471;DHT22;38382;53.160;7.026;2022-11-20T02:34:53;1.40;99.90
52471;DHT22;38382;53.160;7.026;2022-11-20T02:37:20;0.10;99.90
52471;DHT22;38382;53.160;7.026;2022-11-20T02:39:50;1.30;99.90
52471;DHT22;38382;53.160;7.026;2022-11-20T02:42:16;1.30;99.90
52471;DHT22;38382;53.160;7.026;2022-11-20T02:44:42;1.60;99.90
52471;DHT22;38382;53.160;7.026;2022-11-20T02:47:08;1.20;99.90
52471;DHT22;38382;53.160;7.026;2022-11-20T02:49:34;0.10;99.90
52471;DHT22;38382;53.160;7.026;2022-11-20T02:52:01;0.60;99.90
52471;DHT22;38382;53.160;7.026;2022-11-20T02:54:27;0.20;99.90
52471;DHT22;38382;53.160;7.026;2022-11-20T02:56:53;1.80;99.90
52471;DHT22;38382;53.160;7.026;2022-11-20T02:59:19;1.60;99.90
52471;DHT22;38382;53.160;7.026;2022-11-20T03:01:44;1.20;99.90
52471;DHT22;38382;53.160;7.026;2022-11-20T03:04:10;1.90;99.90
52471;DHT22;38382;53.160;7.026;2022-11-20T03:06:36;0.10;99.90
52471;DHT22;38382;53.160;7.026;2022-11-20T03:09:02;0.20;99.90
52471;DHT22;38382;53.160;7.026;2022-11-20T03:11:28;0.40;99.90
52471;DHT22;38382;53.160;7.026;2022-11-20T03:13:54;0.20;99.90
52471;DHT22;38382;53.160;7.026;2022-11-20T03:16:21;1.30;99.90
52471;DHT22;38382;53.160;7.026;2022-11-20T03:18:48;1.00;99.90
52471;DHT22;38382;53.160;7.026;2022-11-20T03:21:15;0.20;99.90
52471;DHT22;38382;53.160;7.026;2022-11-20T03:23:41;1.20;99.90
52471;DHT22;38382;53.160;7.026;2022-11-20T03:26:25;1.20;99.90
52471;DHT22;38382;53.160;7.026;2022-11-20T03:28:57;0.20;99.90
52471;DHT22;38382;53.160;7.026;2022-11-20T03:31:25;0.10;99.90
52471;DHT22;38382;53.160;7.026;2022-11-20T03:33:52;0.10;99.90
52471;DHT22;38382;53.160;7.026;2022-11-20T03:36:19;0.10;99.90
52471;DHT22;38382;53.160;7.026;2022-11-20T03:38:52;0.20;99.90
52471;DHT22;38382;53.160;7.026;2022-11-20T03:41:27;0.20;99.90
52471;DHT22;38382;53.160;7.026;2022-11-20T03:43:56;0.20;99.90
52471;DHT22;38382;53.160;7.026;2022-11-20T03:46:24;0.20;99.90
52471;DHT22;38382;53.160;7.026;2022-11-20T03:48:51;0.20;99.90
52471;DHT22;38382;53.160;7.026;2022-11-20T03:53:48;0.20;99.90
52471;DHT22;38382;53.160;7.026;2022-11-20T03:56:16;0.20;99.90
52471;DHT22;38382;53.160;7.026;2022-11-20T03:58:43;0.20;99.90
52471;DHT22;38382;53.160;7.026;2022-11-20T04:01:11;0.20;99.90
52471;DHT22;38382;53.160;7.026;2022-11-20T04:03:38;0.70;99.90
52471;DHT22;38382;53.160;7.026;2022-11-20T04:06:16;1.90;99.90
52471;DHT22;38382;53.160;7.026;2022-11-20T04:08:42;0.20;99.90
52471;DHT22;38382;53.160;7.026;2022-11-20T04:11:16;0.20;99.90
52471;DHT22;38382;53.160;7.026;2022-11-20T04:13:46;0.20;99.90
52471;DHT22;38382;53.160;7.026;2022-11-20T04:16:12;0.20;99.90
52471;DHT22;38382;53.160;7.026;2022-11-20T04:18:38;0.30;99.90
52471;DHT22;38382;53.160;7.026;2022-11-20T04:21:05;1.80;99.90
52471;DHT22;38382;53.160;7.026;2022-11-20T04:23:31;0.30;99.90
52471;DHT22;38382;53.160;7.026;2022-11-20T04:26:08;0.70;99.90
52471;DHT22;38382;53.160;7.026;2022-11-20T04:28:35;0.30;99.90
52471;DHT22;38382;53.160;7.026;2022-11-20T04:31:24;0.30;99.90
52471;DHT22;38382;53.160;7.026;2022-11-20T04:33:47;0.20;99.90
52471;DHT22;38382;53.160;7.026;2022-11-20T04:38:44;0.30;99.90
52471;DHT22;38382;53.160;7.026;2022-11-20T04:41:15;0.60;99.90
52471;DHT22;38382;53.160;7.026;2022-11-20T04:43:46;0.90;99.90
52471;DHT22;38382;53.160;7.026;2022-11-20T04:46:13;0.30;99.90
52471;DHT22;38382;53.160;7.026;2022-11-20T04:48:39;0.30;99.90
52471;DHT22;38382;53.160;7.026;2022-11-20T04:51:05;0.30;99.90
52471;DHT22;38382;53.160;7.026;2022-11-20T04:53:31;0.30;99.90
52471;DHT22;38382;53.160;7.026;2022-11-20T04:56:04;0.30;99.90
52471;DHT22;38382;53.160;7.026;2022-11-20T04:58:31;1.40;99.90
52471;DHT22;38382;53.160;7.026;2022-11-20T05:01:10;0.30;99.90
52471;DHT22;38382;53.160;7.026;2022-11-20T05:03:38;0.30;99.90
52471;DHT22;38382;53.160;7.026;2022-11-20T05:06:05;0.20;99.90
52471;DHT22;38382;53.160;7.026;2022-11-20T05:08:31;0.30;99.90
52471;DHT22;38382;53.160;7.026;2022-11-20T05:11:05;0.30;99.90
52471;DHT22;38382;53.160;7.026;2022-11-20T05:13:32;1.30;99.90
52471;DHT22;38382;53.160;7.026;2022-11-20T05:16:09;1.60;99.90
52471;DHT22;38382;53.160;7.026;2022-11-20T05:18:36;0.30;99.90
52471;DHT22;38382;53.160;7.026;2022-11-20T05:21:02;1.50;99.90
52471;DHT22;38382;53.160;7.026;2022-11-20T05:23:32;0.30;99.90
52471;DHT22;38382;53.160;7.026;2022-11-20T05:25:58;0.30;99.90
52471;DHT22;38382;53.160;7.026;2022-11-20T05:28:24;0.30;99.90
52471;DHT22;38382;53.160;7.026;2022-11-20T05:30:50;0.30;99.90
52471;DHT22;38382;53.160;7.026;2022-11-20T05:33:16;1.60;99.90
52471;DHT22;38382;53.160;7.026;2022-11-20T05:35:43;0.30;99.90
52471;DHT22;38382;53.160;7.026;2022-11-20T05:38:09;0.30;99.90
52471;DHT22;38382;53.160;7.026;2022-11-20T05:40:35;0.30;99.90
52471;DHT22;38382;53.160;7.026;2022-11-20T05:43:01;1.00;99.90
52471;DHT22;38382;53.160;7.026;2022-11-20T05:45:27;1.40;99.90
52471;DHT22;38382;53.160;7.026;2022-11-20T05:47:53;0.30;99.90
52471;DHT22;38382;53.160;7.026;2022-11-20T05:50:19;0.20;99.90
52471;DHT22;38382;53.160;7.026;2022-11-20T05:52:45;0.30;99.90
52471;DHT22;38382;53.160;7.026;2022-11-20T05:55:10;0.90;99.90
52471;DHT22;38382;53.160;7.026;2022-11-20T05:57:36;1.10;99.90
52471;DHT22;38382;53.160;7.026;2022-11-20T06:00:03;0.80;99.90
52471;DHT22;38382;53.160;7.026;2022-11-20T06:02:29;0.30;99.90
52471;DHT22;38382;53.160;7.026;2022-11-20T06:04:54;0.30;99.90
52471;DHT22;38382;53.160;7.026;2022-11-20T06:07:20;0.30;99.90
52471;DHT22;38382;53.160;7.026;2022-11-20T06:09:46;0.30;99.90
52471;DHT22;38382;53.160;7.026;2022-11-20T06:12:11;0.30;99.90
52471;DHT22;38382;53.160;7.026;2022-11-20T06:14:37;0.30;99.90
52471;DHT22;38382;53.160;7.026;2022-11-20T06:17:03;0.30;99.90
52471;DHT22;38382;53.160;7.026;2022-11-20T06:19:28;1.80;99.90
52471;DHT22;38382;53.160;7.026;2022-11-20T06:21:54;2.00;99.90
52471;DHT22;38382;53.160;7.026;2022-11-20T06:24:20;1.00;99.90
52471;DHT22;38382;53.160;7.026;2022-11-20T06:26:45;0.30;99.90
52471;DHT22;38382;53.160;7.026;2022-11-20T06:29:11;0.30;99.90
52471;DHT22;38382;53.160;7.026;2022-11-20T06:31:37;0.30;99.90
52471;DHT22;38382;53.160;7.026;2022-11-20T06:34:06;0.30;99.90
52471;DHT22;38382;53.160;7.026;2022-11-20T06:36:32;0.90;99.90
52471;DHT22;38382;53.160;7.026;2022-11-20T06:38:59;0.30;99.90
52471;DHT22;38382;53.160;7.026;2022-11-20T06:41:25;0.30;99.90
52471;DHT22;38382;53.160;7.026;2022-11-20T06:43:51;0.40;99.90
52471;DHT22;38382;53.160;7.026;2022-11-20T06:46:18;0.30;99.90
52471;DHT22;38382;53.160;7.026;2022-11-20T06:48:44;0.30;99.90
52471;DHT22;38382;53.160;7.026;2022-11-20T06:51:10;1.40;99.90
52471;DHT22;38382;53.160;7.026;2022-11-20T06:53:37;0.30;99.90
52471;DHT22;38382;53.160;7.026;2022-11-20T06:56:03;0.30;99.90
52471;DHT22;38382;53.160;7.026;2022-11-20T06:58:30;0.30;99.90
52471;DHT22;38382;53.160;7.026;2022-11-20T07:01:13;0.20;99.90
52471;DHT22;38382;53.160;7.026;2022-11-20T07:03:39;0.20;99.90
52471;DHT22;38382;53.160;7.026;2022-11-20T07:06:05;0.20;99.90
52471;DHT22;38382;53.160;7.026;2022-11-20T07:08:32;0.20;99.90
52471;DHT22;38382;53.160;7.026;2022-11-20T07:11:00;0.20;99.90
52471;DHT22;38382;53.160;7.026;2022-11-20T07:13:27;0.70;99.90
52471;DHT22;38382;53.160;7.026;2022-11-20T07:15:53;0.50;99.90
52471;DHT22;38382;53.160;7.026;2022-11-20T07:18:19;0.20;99.90
52471;DHT22;38382;53.160;7.026;2022-11-20T07:20:45;0.20;99.90
52471;DHT22;38382;53.160;7.026;2022-11-20T07:23:11;0.20;99.90
52471;DHT22;38382;53.160;7.026;2022-11-20T07:25:36;1.30;99.90
52471;DHT22;38382;53.160;7.026;2022-11-20T07:28:02;0.70;99.90
52471;DHT22;38382;53.160;7.026;2022-11-20T07:30:30;0.40;99.90
52471;DHT22;38382;53.160;7.026;2022-11-20T07:32:56;0.20;99.90
52471;DHT22;38382;53.160;7.026;2022-11-20T07:35:26;0.30;99.90
52471;DHT22;38382;53.160;7.026;2022-11-20T07:37:51;0.30;99.90
52471;DHT22;38382;53.160;7.026;2022-11-20T07:40:18;0.30;99.90
52471;DHT22;38382;53.160;7.026;2022-11-20T07:42:50;1.10;99.90
52471;DHT22;38382;53.160;7.026;2022-11-20T07:45:21;0.40;99.90
52471;DHT22;38382;53.160;7.026;2022-11-20T07:47:47;0.80;99.90
52471;DHT22;38382;53.160;7.026;2022-11-20T07:50:13;1.70;99.90
52471;DHT22;38382;53.160;7.026;2022-11-20T07:52:39;0.40;99.90
52471;DHT22;38382;53.160;7.026;2022-11-20T07:55:06;0.40;99.90
52471;DHT22;38382;53.160;7.026;2022-11-20T07:57:32;0.40;99.90
52471;DHT22;38382;53.160;7.026;2022-11-20T07:59:57;0.40;99.90
52471;DHT22;38382;53.160;7.026;2022-11-20T08:02:23;1.20;99.90
52471;DHT22;38382;53.160;7.026;2022-11-20T08:04:49;0.50;99.90
52471;DHT22;38382;53.160;7.026;2022-11-20T08:07:14;0.50;99.90
52471;DHT22;38382;53.160;7.026;2022-11-20T08:09:40;1.30;99.90
52471;DHT22;38382;53.160;7.026;2022-11-20T08:12:06;0.60;99.90
52471;DHT22;38382;53.160;7.026;2022-11-20T08:14:50;0.60;99.90
52471;DHT22;38382;53.160;7.026;2022-11-20T08:17:16;0.60;99.90
52471;DHT22;38382;53.160;7.026;2022-11-20T08:19:42;0.70;99.90
52471;DHT22;38382;53.160;7.026;2022-11-20T08:22:07;2.10;99.90
52471;DHT22;38382;53.160;7.026;2022-11-20T08:24:33;0.80;99.90
52471;DHT22;38382;53.160;7.026;2022-11-20T08:26:59;0.60;99.90
52471;DHT22;38382;53.160;7.026;2022-11-20T08:29:26;0.70;99.90
52471;DHT22;38382;53.160;7.026;2022-11-20T08:31:52;0.70;99.90
52471;DHT22;38382;53.160;7.026;2022-11-20T08:34:17;1.80;99.90
52471;DHT22;38382;53.160;7.026;2022-11-20T08:36:43;2.30;99.90
52471;DHT22;38382;53.160;7.026;2022-11-20T08:39:11;0.70;99.90
52471;DHT22;38382;53.160;7.026;2022-11-20T08:41:37;2.20;99.90
52471;DHT22;38382;53.160;7.026;2022-11-20T08:44:05;0.70;99.90
52471;DHT22;38382;53.160;7.026;2022-11-20T08:46:40;0.80;99.90
52471;DHT22;38382;53.160;7.026;2022-11-20T08:49:11;0.80;99.90
52471;DHT22;38382;53.160;7.026;2022-11-20T08:51:37;0.90;99.90
52471;DHT22;38382;53.160;7.026;2022-11-20T08:54:04;0.80;99.90
52471;DHT22;38382;53.160;7.026;2022-11-20T08:56:30;0.80;99.90
52471;DHT22;38382;53.160;7.026;2022-11-20T08:58:56;2.10;99.90
52471;DHT22;38382;53.160;7.026;2022-11-20T09:01:23;1.50;99.90
52471;DHT22;38382;53.160;7.026;2022-11-20T09:03:49;2.60;99.90
52471;DHT22;38382;53.160;7.026;2022-11-20T09:06:15;2.30;99.90
52471;DHT22;38382;53.160;7.026;2022-11-20T09:08:42;1.20;99.90
52471;DHT22;38382;53.160;7.026;2022-11-20T09:11:07;1.00;99.90
52471;DHT22;38382;53.160;7.026;2022-11-20T09:13:35;1.00;99.90
52471;DHT22;38382;53.160;7.026;2022-11-20T09:16:10;2.40;99.90
52471;DHT22;38382;53.160;7.026;2022-11-20T09:18:36;1.10;99.90
52471;DHT22;38382;53.160;7.026;2022-11-20T09:21:09;2.50;99.90
52471;DHT22;38382;53.160;7.026;2022-11-20T09:23:36;1.10;99.90
52471;DHT22;38382;53.160;7.026;2022-11-20T09:26:10;1.10;99.90
52471;DHT22;38382;53.160;7.026;2022-11-20T09:28:38;1.10;99.90
52471;DHT22;38382;53.160;7.026;2022-11-20T09:31:20;1.10;99.90
52471;DHT22;38382;53.160;7.026;2022-11-20T09:33:47;1.10;99.90
52471;DHT22;38382;53.160;7.026;2022-11-20T09:36:12;1.10;99.90
52471;DHT22;38382;53.160;7.026;2022-11-20T09:38:38;3.00;99.90
52471;DHT22;38382;53.160;7.026;2022-11-20T09:41:06;1.10;99.90
52471;DHT22;38382;53.160;7.026;2022-11-20T09:51:58;1.20;99.90
52471;DHT22;38382;53.160;7.026;2022-11-20T09:54:36;1.20;99.90
52471;DHT22;38382;53.160;7.026;2022-11-20T09:57:08;2.40;99.90
52471;DHT22;38382;53.160;7.026;2022-11-20T09:59:46;1.20;99.90
52471;DHT22;38382;53.160;7.026;2022-11-20T10:04:56;1.20;99.90
52471;DHT22;38382;53.160;7.026;2022-11-20T10:10:18;1.20;99.90
52471;DHT22;38382;53.160;7.026;2022-11-20T10:16:01;1.30;99.90
52471;DHT22;38382;53.160;7.026;2022-11-20T10:21:12;1.40;99.90
52471;DHT22;38382;53.160;7.026;2022-11-20T10:29:17;1.50;99.90
52471;DHT22;38382;53.160;7.026;2022-11-20T10:31:45;1.40;99.90
52471;DHT22;38382;53.160;7.026;2022-11-20T10:34:21;1.50;99.90
52471;DHT22;38382;53.160;7.026;2022-11-20T10:36:56;1.50;99.90
52471;DHT22;38382;53.160;7.026;2022-11-20T10:42:11;1.60;99.90
52471;DHT22;38382;53.160;7.026;2022-11-20T10:44:43;2.60;99.90
52471;DHT22;38382;53.160;7.026;2022-11-20T10:47:30;1.60;99.90
52471;DHT22;38382;53.160;7.026;2022-11-20T10:50:02;2.50;99.90
52471;DHT22;38382;53.160;7.026;2022-11-20T10:53:18;2.80;99.90
52471;DHT22;38382;53.160;7.026;2022-11-20T10:56:17;1.80;99.90
52471;DHT22;38382;53.160;7.026;2022-11-20T11:01:21;1.90;99.90
52471;DHT22;38382;53.160;7.026;2022-11-20T11:03:52;2.00;99.90
52471;DHT22;38382;53.160;7.026;2022-11-20T11:06:40;2.00;99.90
52471;DHT22;38382;53.160;7.026;2022-11-20T11:09:15;2.10;99.90
52471;DHT22;38382;53.160;7.026;2022-11-20T11:11:42;2.10;99.90
52471;DHT22;38382;53.160;7.026;2022-11-20T11:14:10;3.60;99.90
52471;DHT22;38382;53.160;7.026;2022-11-20T11:16:52;2.20;99.90
52471;DHT22;38382;53.160;7.026;2022-11-20T11:19:18;2.30;99.90
52471;DHT22;38382;53.160;7.026;2022-11-20T11:21:53;2.90;99.90
52471;DHT22;38382;53.160;7.026;2022-11-20T11:24:29;2.90;99.90
52471;DHT22;38382;53.160;7.026;2022-11-20T11:26:58;2.40;99.90
52471;DHT22;38382;53.160;7.026;2022-11-20T11:29:25;2.30;99.90
52471;DHT22;38382;53.160;7.026;2022-11-20T11:32:12;3.60;99.90
52471;DHT22;38382;53.160;7.026;2022-11-20T11:34:38;2.40;99.90
52471;DHT22;38382;53.160;7.026;2022-11-20T11:37:05;2.40;99.90
52471;DHT22;38382;53.160;7.026;2022-11-20T11:39:39;2.50;99.90
52471;DHT22;38382;53.160;7.026;2022-11-20T11:42:13;3.80;99.90
52471;DHT22;38382;53.160;7.026;2022-11-20T11:44:44;2.50;99.90
52471;DHT22;38382;53.160;7.026;2022-11-20T11:47:36;2.60;99.90
52471;DHT22;38382;53.160;7.026;2022-11-20T11:50:23;2.60;99.90
52471;DHT22;38382;53.160;7.026;2022-11-20T11:53:14;2.60;99.90
52471;DHT22;38382;53.160;7.026;2022-11-20T11:56:08;2.60;99.90
52471;DHT22;38382;53.160;7.026;2022-11-20T11:58:52;2.60;99.90
52471;DHT22;38382;53.160;7.026;2022-11-20T12:01:28;2.70;99.90
52471;DHT22;38382;53.160;7.026;2022-11-20T12:07:01;2.70;99.90
52471;DHT22;38382;53.160;7.026;2022-11-20T12:09:37;2.80;99.90
52471;DHT22;38382;53.160;7.026;2022-11-20T12:12:23;2.80;99.90
52471;DHT22;38382;53.160;7.026;2022-11-20T12:14:53;2.80;99.90
52471;DHT22;38382;53.160;7.026;2022-11-20T12:17:20;2.80;99.90
52471;DHT22;38382;53.160;7.026;2022-11-20T12:19:46;2.80;99.90
52471;DHT22;38382;53.160;7.026;2022-11-20T12:25:15;2.90;99.90
52471;DHT22;38382;53.160;7.026;2022-11-20T12:30:33;3.00;99.90
52471;DHT22;38382;53.160;7.026;2022-11-20T12:36:06;3.00;99.90
52471;DHT22;38382;53.160;7.026;2022-11-20T12:44:00;3.30;99.90
52471;DHT22;38382;53.160;7.026;2022-11-20T12:47:11;4.10;99.90
52471;DHT22;38382;53.160;7.026;2022-11-20T12:49:42;3.40;99.90
52471;DHT22;38382;53.160;7.026;2022-11-20T12:55:21;3.50;99.90
52471;DHT22;38382;53.160;7.026;2022-11-20T12:57:58;3.40;99.90
52471;DHT22;38382;53.160;7.026;2022-11-20T13:00:25;3.40;99.90
52471;DHT22;38382;53.160;7.026;2022-11-20T13:03:00;3.80;99.90
52471;DHT22;38382;53.160;7.026;2022-11-20T13:08:26;3.40;99.90
52471;DHT22;38382;53.160;7.026;2022-11-20T13:11:07;4.00;99.90
52471;DHT22;38382;53.160;7.026;2022-11-20T13:16:58;4.30;99.90
52471;DHT22;38382;53.160;7.026;2022-11-20T13:19:24;3.30;99.90
52471;DHT22;38382;53.160;7.026;2022-11-20T13:21:50;3.20;99.90
52471;DHT22;38382;53.160;7.026;2022-11-20T13:24:20;3.30;99.90
52471;DHT22;38382;53.160;7.026;2022-11-20T13:27:17;3.20;99.90
52471;DHT22;38382;53.160;7.026;2022-11-20T13:29:46;3.20;99.90
52471;DHT22;38382;53.160;7.026;2022-11-20T13:34:37;3.20;99.90
52471;DHT22;38382;53.160;7.026;2022-11-20T13:37:03;3.30;99.90
52471;DHT22;38382;53.160;7.026;2022-11-20T13:39:34;3.30;99.90
52471;DHT22;38382;53.160;7.026;2022-11-20T13:42:25;3.60;99.90
52471;DHT22;38382;53.160;7.026;2022-11-20T13:44:54;3.30;99.90
52471;DHT22;38382;53.160;7.026;2022-11-20T13:47:22;4.30;99.90
52471;DHT22;38382;53.160;7.026;2022-11-20T13:49:49;3.60;99.90
52471;DHT22;38382;53.160;7.026;2022-11-20T13:52:46;3.40;99.90
52471;DHT22;38382;53.160;7.026;2022-11-20T13:58:44;3.50;99.90
52471;DHT22;38382;53.160;7.026;2022-11-20T14:01:42;3.40;99.90
52471;DHT22;38382;53.160;7.026;2022-11-20T14:04:07;3.40;99.90
52471;DHT22;38382;53.160;7.026;2022-11-20T14:06:52;4.90;99.90
52471;DHT22;38382;53.160;7.026;2022-11-20T14:09:30;3.40;99.90
52471;DHT22;38382;53.160;7.026;2022-11-20T14:11:57;3.30;99.90
52471;DHT22;38382;53.160;7.026;2022-11-20T14:14:25;4.30;99.90
52471;DHT22;38382;53.160;7.026;2022-11-20T14:17:08;3.30;99.90
52471;DHT22;38382;53.160;7.026;2022-11-20T14:19:34;3.20;99.90
52471;DHT22;38382;53.160;7.026;2022-11-20T14:22:18;3.10;99.90
52471;DHT22;38382;53.160;7.026;2022-11-20T14:24:46;3.10;99.90
52471;DHT22;38382;53.160;7.026;2022-11-20T14:27:16;3.70;99.90
52471;DHT22;38382;53.160;7.026;2022-11-20T14:29:45;3.50;99.90
52471;DHT22;38382;53.160;7.026;2022-11-20T14:32:11;2.90;99.90
52471;DHT22;38382;53.160;7.026;2022-11-20T14:34:41;3.50;99.90
52471;DHT22;38382;53.160;7.026;2022-11-20T14:37:17;4.10;99.90
52471;DHT22;38382;53.160;7.026;2022-11-20T14:39:58;2.90;99.90
52471;DHT22;38382;53.160;7.026;2022-11-20T14:42:26;4.30;99.90
52471;DHT22;38382;53.160;7.026;2022-11-20T14:44:55;2.80;99.90
52471;DHT22;38382;53.160;7.026;2022-11-20T14:47:25;3.20;99.90
52471;DHT22;38382;53.160;7.026;2022-11-20T14:49:52;3.10;99.90
52471;DHT22;38382;53.160;7.026;2022-11-20T14:52:21;2.90;99.90
52471;DHT22;38382;53.160;7.026;2022-11-20T14:54:52;2.70;99.90
52471;DHT22;38382;53.160;7.026;2022-11-20T14:57:27;2.70;99.90
52471;DHT22;38382;53.160;7.026;2022-11-20T15:02:44;2.60;99.90
52471;DHT22;38382;53.160;7.026;2022-11-20T15:05:11;2.60;99.90
52471;DHT22;38382;53.160;7.026;2022-11-20T15:07:40;4.30;99.90
52471;DHT22;38382;53.160;7.026;2022-11-20T15:10:11;3.80;99.90
52471;DHT22;38382;53.160;7.026;2022-11-20T15:12:46;2.50;99.90
52471;DHT22;38382;53.160;7.026;2022-11-20T15:16:02;3.40;99.90
52471;DHT22;38382;53.160;7.026;2022-11-20T15:18:03;2.40;99.90
52471;DHT22;38382;53.160;7.026;2022-11-20T15:20:31;2.30;99.90
52471;DHT22;38382;53.160;7.026;2022-11-20T15:22:57;2.30;99.90
52471;DHT22;38382;53.160;7.026;2022-11-20T15:25:23;2.80;99.90
52471;DHT22;38382;53.160;7.026;2022-11-20T15:27:53;3.80;99.90
52471;DHT22;38382;53.160;7.026;2022-11-20T15:30:21;2.10;99.90
52471;DHT22;38382;53.160;7.026;2022-11-20T15:32:47;2.90;99.90
52471;DHT22;38382;53.160;7.026;2022-11-20T15:35:14;3.50;99.90
52471;DHT22;38382;53.160;7.026;2022-11-20T15:37:40;2.00;99.90
52471;DHT22;38382;53.160;7.026;2022-11-20T15:40:07;2.70;99.90
52471;DHT22;38382;53.160;7.026;2022-11-20T15:42:33;2.00;99.90
52471;DHT22;38382;53.160;7.026;2022-11-20T15:44:59;1.90;99.90
52471;DHT22;38382;53.160;7.026;2022-11-20T15:47:31;1.80;99.90
52471;DHT22;38382;53.160;7.026;2022-11-20T15:49:58;1.80;99.90
52471;DHT22;38382;53.160;7.026;2022-11-20T15:52:23;1.80;99.90
52471;DHT22;38382;53.160;7.026;2022-11-20T15:54:49;1.70;99.90
52471;DHT22;38382;53.160;7.026;2022-11-20T15:57:15;1.70;99.90
52471;DHT22;38382;53.160;7.026;2022-11-20T15:59:40;1.70;99.90
52471;DHT22;38382;53.160;7.026;2022-11-20T16:02:14;1.70;99.90
52471;DHT22;38382;53.160;7.026;2022-11-20T16:04:41;1.60;99.90
52471;DHT22;38382;53.160;7.026;2022-11-20T16:07:07;1.60;99.90
52471;DHT22;38382;53.160;7.026;2022-11-20T16:09:33;2.90;99.90
52471;DHT22;38382;53.160;7.026;2022-11-20T16:12:01;1.60;99.90
52471;DHT22;38382;53.160;7.026;2022-11-20T16:14:27;1.30;99.90
52471;DHT22;38382;53.160;7.026;2022-11-20T16:17:12;1.50;99.90
52471;DHT22;38382;53.160;7.026;2022-11-20T16:19:38;1.50;99.90
52471;DHT22;38382;53.160;7.026;2022-11-20T16:22:04;1.50;99.90
52471;DHT22;38382;53.160;7.026;2022-11-20T16:24:30;2.10;99.90
52471;DHT22;38382;53.160;7.026;2022-11-20T16:26:56;1.40;99.90
52471;DHT22;38382;53.160;7.026;2022-11-20T16:29:22;2.70;99.90
52471;DHT22;38382;53.160;7.026;2022-11-20T16:31:48;1.50;99.90
52471;DHT22;38382;53.160;7.026;2022-11-20T16:34:15;1.50;99.90
52471;DHT22;38382;53.160;7.026;2022-11-20T16:36:42;2.00;99.90
52471;DHT22;38382;53.160;7.026;2022-11-20T16:39:09;1.40;99.90
52471;DHT22;38382;53.160;7.026;2022-11-20T16:41:35;2.20;99.90
52471;DHT22;38382;53.160;7.026;2022-11-20T16:44:06;3.20;99.90
52471;DHT22;38382;53.160;7.026;2022-11-20T16:46:32;1.40;99.90
52471;DHT22;38382;53.160;7.026;2022-11-20T16:49:06;3.10;99.90
52471;DHT22;38382;53.160;7.026;2022-11-20T16:51:35;1.40;99.90
52471;DHT22;38382;53.160;7.026;2022-11-20T16:54:02;1.50;99.90
52471;DHT22;38382;53.160;7.026;2022-11-20T16:56:28;2.60;99.90
52471;DHT22;38382;53.160;7.026;2022-11-20T16:58:56;1.30;99.90
52471;DHT22;38382;53.160;7.026;2022-11-20T17:01:23;1.80;99.90
52471;DHT22;38382;53.160;7.026;2022-11-20T17:04:00;1.80;99.90
52471;DHT22;38382;53.160;7.026;2022-11-20T17:06:33;1.40;99.90
52471;DHT22;38382;53.160;7.026;2022-11-20T17:08:59;2.40;99.90
52471;DHT22;38382;53.160;7.026;2022-11-20T17:11:25;1.30;99.90
52471;DHT22;38382;53.160;7.026;2022-11-20T17:13:51;1.70;99.90
52471;DHT22;38382;53.160;7.026;2022-11-20T17:16:21;2.70;99.90